Time;durP1;ratioP1;P1;durP2;ratioP2;P2;SDS_P1;SDS_P2;PMS_P1;PMS_P2;Temp;Humidity;BMP_temperature;BMP_pressure;BME280_temperature;BME280_humidity;BME280_pressure;Samples;Min_cycle;Max_cycle;Signal;HPM_P1;HPM_P2
2022/11/28 00:00:04;;;;;;;6.38;3.70;;;15.90;69.50;;;;;;10405147;28;20451;-55
2022/11/28 00:05:05;;;;;;;7.40;3.65;;;15.90;69.50;;;;;;10379511;28;20556;-54
2022/11/28 00:10:07;;;;;;;4.65;3.17;;;15.90;69.50;;;;;;10385126;28;20033;-56
2022/11/28 00:15:10;;;;;;;5.90;3.25;;;15.90;69.40;;;;;;10386073;28;20056;-56
2022/11/28 00:20:11;;;;;;;3.72;2.22;;;15.90;69.50;;;;;;10401243;28;20018;-55
2022/11/28 00:25:11;;;;;;;4.43;2.88;;;15.90;69.50;;;;;;10374194;28;20500;-56
2022/11/28 00:30:12;;;;;;;5.13;3.00;;;15.90;69.40;;;;;;10382997;28;20582;-56
2022/11/28 00:35:13;;;;;;;4.15;3.05;;;15.90;69.40;;;;;;10401641;28;20049;-55
2022/11/28 00:40:14;;;;;;;4.95;3.17;;;15.90;69.40;;;;;;10392719;28;20026;-56
2022/11/28 00:45:14;;;;;;;4.72;3.33;;;15.90;69.20;;;;;;10410388;28;20029;-55
2022/11/28 00:50:15;;;;;;;4.78;3.03;;;15.90;69.20;;;;;;10410914;28;20029;-54
2022/11/28 00:55:16;;;;;;;3.70;2.67;;;15.90;69.30;;;;;;10411583;28;20048;-54
2022/11/28 01:00:17;;;;;;;4.53;2.38;;;15.90;69.20;;;;;;10398779;28;20025;-55
2022/11/28 01:05:17;;;;;;;4.30;2.50;;;15.90;69.20;;;;;;10357355;28;20088;-55
2022/11/28 01:10:20;;;;;;;4.53;2.53;;;15.90;69.20;;;;;;10393330;28;20036;-53
2022/11/28 01:15:20;;;;;;;4.97;2.95;;;15.90;69.10;;;;;;10404683;28;20615;-55
2022/11/28 01:20:21;;;;;;;4.20;2.42;;;15.90;69.10;;;;;;10406524;28;20184;-54
2022/11/28 01:25:22;;;;;;;3.80;2.70;;;15.90;69.10;;;;;;10406366;28;20081;-54
2022/11/28 01:30:22;;;;;;;3.60;2.10;;;15.90;69.10;;;;;;10368917;28;20718;-55
2022/11/28 01:35:23;;;;;;;3.42;2.80;;;15.90;68.90;;;;;;10363368;28;20042;-54
2022/11/28 01:40:24;;;;;;;3.28;2.33;;;15.90;69.00;;;;;;10394381;28;20064;-55
2022/11/28 01:45:32;;;;;;;4.18;2.72;;;15.90;69.00;;;;;;10407925;28;20452;-54
2022/11/28 01:50:35;;;;;;;3.92;2.50;;;15.90;68.80;;;;;;10385559;28;20137;-54
2022/11/28 01:55:47;;;;;;;2.95;2.30;;;15.90;68.80;;;;;;10407857;28;20034;-55
2022/11/28 02:00:48;;;;;;;3.55;2.15;;;15.90;68.90;;;;;;10393391;28;20021;-56
2022/11/28 02:05:50;;;;;;;4.05;2.25;;;16.00;68.90;;;;;;10406181;28;20048;-55
2022/11/28 02:11:11;;;;;;;2.88;1.80;;;16.00;68.90;;;;;;10372829;28;20064;-53
2022/11/28 02:17:14;;;;;;;3.90;2.38;;;15.90;68.90;;;;;;10421443;28;20033;-51
2022/11/28 02:22:26;;;;;;;4.55;3.13;;;16.00;68.90;;;;;;10414398;28;20465;-55
2022/11/28 02:28:16;;;;;;;2.85;2.17;;;15.90;68.80;;;;;;10386441;28;20041;-55
2022/11/28 02:33:41;;;;;;;3.30;1.95;;;15.90;68.90;;;;;;10367209;28;20041;-54
2022/11/28 02:39:05;;;;;;;3.30;1.75;;;16.00;68.90;;;;;;10370623;28;20041;-56
2022/11/28 02:44:38;;;;;;;3.00;1.67;;;15.90;68.80;;;;;;10407465;28;20060;-55
2022/11/28 02:49:56;;;;;;;3.78;2.40;;;15.90;68.80;;;;;;10345766;28;20079;-56
2022/11/28 02:54:58;;;;;;;3.55;2.08;;;16.00;68.80;;;;;;10400612;28;20038;-53
2022/11/28 02:59:59;;;;;;;2.83;2.03;;;15.90;68.80;;;;;;10363008;28;20022;-55
2022/11/28 03:05:26;;;;;;;3.83;1.95;;;15.90;68.80;;;;;;10379908;28;20445;-55
2022/11/28 03:10:57;;;;;;;3.25;1.90;;;15.90;68.70;;;;;;10353965;28;20137;-56
2022/11/28 03:16:13;;;;;;;3.45;1.80;;;15.90;68.70;;;;;;10368339;28;20149;-55
2022/11/28 03:21:37;;;;;;;2.90;2.15;;;15.90;68.90;;;;;;10377936;28;20034;-53
2022/11/28 03:26:56;;;;;;;3.13;1.80;;;16.00;68.60;;;;;;10382117;28;20033;-54
2022/11/28 03:32:08;;;;;;;2.00;1.40;;;15.90;68.50;;;;;;10404912;28;20622;-53
2022/11/28 03:37:25;;;;;;;2.78;2.00;;;15.90;68.60;;;;;;10367521;28;20308;-52
2022/11/28 03:42:31;;;;;;;2.63;1.73;;;15.90;68.60;;;;;;10362119;28;20018;-55
2022/11/28 03:47:38;;;;;;;2.92;1.70;;;15.90;68.60;;;;;;10388125;28;20041;-55
2022/11/28 03:52:51;;;;;;;2.53;1.65;;;15.90;68.70;;;;;;10385486;28;20496;-55
2022/11/28 03:58:10;;;;;;;2.40;1.45;;;15.90;68.70;;;;;;10381829;28;20029;-54
2022/11/28 04:03:25;;;;;;;2.75;1.73;;;15.90;68.50;;;;;;10361691;28;20049;-56
2022/11/28 04:08:29;;;;;;;2.47;1.40;;;15.90;68.50;;;;;;10400859;28;20107;-55
2022/11/28 04:14:00;;;;;;;2.35;1.70;;;15.90;68.50;;;;;;10381670;28;20042;-54
2022/11/28 04:19:25;;;;;;;2.78;1.50;;;16.00;68.40;;;;;;10369708;28;20447;-56
2022/11/28 04:24:36;;;;;;;2.35;1.70;;;15.90;68.50;;;;;;10381068;28;20053;-55
2022/11/28 04:29:46;;;;;;;2.00;1.40;;;15.90;68.60;;;;;;10384752;28;20026;-56
2022/11/28 04:34:54;;;;;;;2.60;1.50;;;16.00;68.50;;;;;;10351614;28;20042;-56
2022/11/28 04:39:55;;;;;;;3.58;1.58;;;15.90;68.50;;;;;;10354912;28;20022;-56
2022/11/28 04:45:15;;;;;;;2.53;1.52;;;15.90;68.60;;;;;;10377927;28;20556;-55
2022/11/28 04:50:16;;;;;;;2.47;1.30;;;16.00;68.50;;;;;;10381217;28;20728;-54
2022/11/28 04:55:31;;;;;;;2.20;1.27;;;15.90;68.40;;;;;;10360550;28;20042;-53
2022/11/28 05:00:35;;;;;;;2.30;1.50;;;15.90;68.60;;;;;;10366456;28;20032;-55
2022/11/28 05:05:48;;;;;;;2.53;1.30;;;15.90;68.40;;;;;;10406234;28;20017;-55
2022/11/28 05:10:49;;;;;;;1.85;1.20;;;15.90;68.40;;;;;;10409994;28;20342;-55
2022/11/28 05:15:50;;;;;;;1.88;1.20;;;15.90;68.50;;;;;;10409938;28;20037;-56
2022/11/28 05:20:50;;;;;;;2.08;1.25;;;15.90;68.40;;;;;;10431114;28;20048;-55
2022/11/28 05:25:51;;;;;;;1.80;1.02;;;15.90;68.30;;;;;;10385573;28;20488;-55
2022/11/28 05:31:00;;;;;;;2.38;1.25;;;15.90;68.50;;;;;;10387846;28;20065;-54
2022/11/28 05:36:07;;;;;;;1.98;1.15;;;15.90;68.30;;;;;;10439692;28;20691;-55
2022/11/28 05:41:08;;;;;;;2.70;1.33;;;16.00;68.30;;;;;;10396239;28;20049;-54
2022/11/28 05:46:09;;;;;;;2.30;1.30;;;15.90;68.20;;;;;;10392407;28;20022;-54
2022/11/28 05:51:10;;;;;;;3.92;1.90;;;15.90;68.30;;;;;;10369019;28;20053;-53
2022/11/28 05:56:15;;;;;;;1.38;0.93;;;16.00;68.30;;;;;;10356301;28;20037;-56
2022/11/28 06:01:22;;;;;;;4.25;1.55;;;16.00;68.30;;;;;;10398379;28;20041;-57
2022/11/28 06:06:25;;;;;;;6.85;1.95;;;16.10;68.80;;;;;;10363482;28;20550;-57
2022/11/28 06:11:29;;;;;;;8.52;2.00;;;16.20;70.20;;;;;;10365386;28;20501;-57
2022/11/28 06:16:30;;;;;;;10.70;1.88;;;16.20;70.90;;;;;;10417416;28;20124;-56
2022/11/28 06:21:31;;;;;;;9.45;2.00;;;16.20;71.40;;;;;;10403180;28;20029;-55
2022/11/28 06:26:32;;;;;;;7.43;1.90;;;16.20;71.00;;;;;;10396306;28;20148;-53
2022/11/28 06:31:33;;;;;;;4.05;1.65;;;16.10;71.70;;;;;;10397997;28;20076;-55
2022/11/28 06:36:34;;;;;;;6.47;1.95;;;16.10;71.50;;;;;;10408120;28;20049;-56
2022/11/28 06:41:34;;;;;;;8.77;2.70;;;16.10;71.40;;;;;;10401190;28;20032;-55
2022/11/28 06:46:35;;;;;;;12.88;2.45;;;16.00;71.80;;;;;;10382514;28;20045;-55
2022/11/28 06:51:36;;;;;;;7.28;2.33;;;16.00;72.10;;;;;;10395774;28;20112;-54
2022/11/28 06:56:40;;;;;;;5.30;1.38;;;16.00;71.70;;;;;;10438806;28;20033;-55
2022/11/28 07:01:40;;;;;;;7.10;1.73;;;16.00;71.60;;;;;;10396075;28;20049;-56
2022/11/28 07:06:43;;;;;;;16.50;3.30;;;15.90;72.00;;;;;;10390625;28;20104;-54
2022/11/28 07:11:44;;;;;;;20.08;3.42;;;15.80;72.70;;;;;;10372580;28;20035;-56
2022/11/28 07:16:46;;;;;;;22.73;3.20;;;15.80;73.50;;;;;;10394349;28;20620;-55
2022/11/28 07:21:46;;;;;;;9.85;1.95;;;15.90;72.30;;;;;;10375350;28;20009;-53
2022/11/28 07:26:47;;;;;;;12.98;2.17;;;16.00;71.50;;;;;;10412018;28;20064;-53
2022/11/28 07:31:48;;;;;;;8.68;2.42;;;16.10;70.90;;;;;;10362910;28;20025;-53
2022/11/28 07:36:48;;;;;;;8.63;2.10;;;16.20;70.60;;;;;;10393813;28;20134;-53
2022/11/28 07:41:49;;;;;;;12.07;2.70;;;16.40;70.50;;;;;;10383781;28;20433;-53
2022/11/28 07:46:50;;;;;;;11.82;3.08;;;16.50;70.40;;;;;;10369856;28;20033;-52
2022/11/28 07:51:50;;;;;;;14.52;2.63;;;16.60;70.60;;;;;;10376589;28;20129;-52
2022/11/28 07:56:51;;;;;;;15.13;3.63;;;16.60;70.30;;;;;;10383001;28;20167;-53
2022/11/28 08:01:52;;;;;;;12.50;2.78;;;16.70;70.20;;;;;;10380869;28;20014;-52
2022/11/28 08:06:53;;;;;;;16.77;2.50;;;16.70;70.40;;;;;;10382546;28;20043;-53
2022/11/28 08:11:54;;;;;;;11.13;2.80;;;16.70;70.30;;;;;;10366015;28;20045;-54
2022/11/28 08:16:54;;;;;;;10.00;2.10;;;16.70;70.30;;;;;;10399328;28;20051;-56
2022/11/28 08:21:55;;;;;;;13.45;2.08;;;16.80;70.60;;;;;;10382729;28;20034;-52
2022/11/28 08:26:56;;;;;;;10.52;2.17;;;16.80;69.90;;;;;;10339164;28;20030;-54
2022/11/28 08:31:56;;;;;;;9.95;2.08;;;16.80;69.90;;;;;;10354627;28;20113;-52
2022/11/28 08:36:57;;;;;;;13.93;2.35;;;16.70;70.50;;;;;;10367018;28;20543;-53
2022/11/28 08:41:58;;;;;;;16.48;2.25;;;16.70;70.20;;;;;;10366688;28;20117;-52
2022/11/28 08:46:59;;;;;;;11.13;3.40;;;16.70;70.30;;;;;;10424827;28;20033;-55
2022/11/28 08:52:00;;;;;;;15.15;3.08;;;16.60;70.40;;;;;;10375142;28;20049;-51
2022/11/28 08:57:00;;;;;;;8.48;2.08;;;16.50;70.60;;;;;;10371026;28;20030;-53
2022/11/28 09:02:01;;;;;;;7.93;1.80;;;16.50;70.90;;;;;;10384482;28;20079;-53
2022/11/28 09:07:02;;;;;;;6.00;1.77;;;16.60;70.60;;;;;;10387091;28;20026;-56
2022/11/28 09:12:03;;;;;;;18.85;3.13;;;16.60;72.40;;;;;;10360303;28;20038;-53
2022/11/28 09:17:04;;;;;;;10.30;2.45;;;16.50;75.60;;;;;;10373016;28;20120;-55
2022/11/28 09:22:04;;;;;;;18.45;2.70;;;16.50;75.70;;;;;;10387198;28;20107;-54
2022/11/28 09:27:05;;;;;;;10.75;1.90;;;16.50;73.90;;;;;;10383111;28;20671;-54
2022/11/28 09:32:06;;;;;;;6.90;2.33;;;16.60;73.50;;;;;;10370045;28;20093;-54
2022/11/28 09:37:06;;;;;;;6.05;2.05;;;16.70;72.90;;;;;;10401847;28;20053;-53
2022/11/28 09:42:22;;;;;;;9.73;2.42;;;16.80;72.90;;;;;;10386986;28;20438;-54
2022/11/28 09:47:30;;;;;;;9.45;1.75;;;16.90;73.40;;;;;;10385049;28;20037;-55
2022/11/28 09:53:14;;;;;;;18.35;2.28;;;17.00;72.50;;;;;;10371973;28;20081;-53
2022/11/28 09:58:29;;;;;;;11.73;1.90;;;17.10;73.40;;;;;;10379299;28;20030;-54
2022/11/28 10:03:38;;;;;;;10.23;2.00;;;17.20;72.60;;;;;;10368866;28;20034;-55
2022/11/28 10:09:20;;;;;;;;;;;17.20;72.70;;;;;;10359019;28;20036;-55
2022/11/28 10:14:44;;;;;;;12.07;2.40;;;17.30;71.90;;;;;;10382631;28;19917;-54
2022/11/28 10:20:16;;;;;;;11.60;2.55;;;17.20;71.90;;;;;;10365255;28;20040;-55
2022/11/28 10:25:25;;;;;;;7.43;2.35;;;17.10;72.40;;;;;;10371735;28;20028;-54
2022/11/28 10:30:32;;;;;;;6.13;1.80;;;17.10;72.70;;;;;;10380402;28;20664;-54
2022/11/28 10:35:45;;;;;;;5.05;1.67;;;17.20;72.80;;;;;;10398872;28;20068;-54
2022/11/28 10:40:58;;;;;;;20.55;2.42;;;17.20;72.70;;;;;;10387963;28;20049;-53
2022/11/28 10:46:38;;;;;;;9.07;1.63;;;17.20;72.50;;;;;;10373202;28;20068;-53
2022/11/28 10:51:53;;;;;;;3.97;1.40;;;17.20;72.30;;;;;;10385606;28;20045;-53
2022/11/28 10:57:24;;;;;;;4.00;1.73;;;17.20;72.30;;;;;;10387568;28;20519;-55
2022/11/28 11:02:46;;;;;;;4.72;1.52;;;17.20;72.50;;;;;;10362209;28;20030;-54
2022/11/28 11:07:56;;;;;;;10.90;2.17;;;17.20;72.20;;;;;;10360511;28;20054;-52
2022/11/28 11:12:58;;;;;;;12.77;1.88;;;17.00;72.20;;;;;;10360945;28;20024;-55
2022/11/28 11:18:36;;;;;;;6.13;1.95;;;17.10;71.50;;;;;;10366340;28;20386;-54
2022/11/28 11:23:36;;;;;;;7.28;2.08;;;17.10;71.10;;;;;;10359235;28;20036;-55
2022/11/28 11:28:44;;;;;;;7.53;1.55;;;17.20;71.00;;;;;;10372250;28;20038;-53
2022/11/28 11:33:46;;;;;;;5.15;1.27;;;17.20;70.70;;;;;;10386909;28;20034;-52
2022/11/28 11:38:47;;;;;;;7.72;1.50;;;17.20;70.50;;;;;;10358906;28;20491;-54
2022/11/28 11:43:48;;;;;;;5.18;1.50;;;17.20;70.40;;;;;;10360077;28;20029;-55
2022/11/28 11:48:52;;;;;;;5.40;1.55;;;17.20;70.20;;;;;;10364675;28;20113;-53
2022/11/28 11:54:12;;;;;;;2.80;1.20;;;17.20;70.10;;;;;;10367085;28;20030;-55
2022/11/28 11:59:32;;;;;;;4.68;1.35;;;17.10;70.50;;;;;;10363295;28;20112;-48
2022/11/28 12:04:42;;;;;;;7.00;1.65;;;17.20;70.80;;;;;;10357418;28;20022;-53
2022/11/28 12:09:47;;;;;;;4.93;2.03;;;17.40;70.80;;;;;;10359423;28;20026;-52
2022/11/28 12:14:49;;;;;;;4.90;1.40;;;17.40;70.90;;;;;;10366098;28;20531;-52
2022/11/28 12:20:32;;;;;;;6.18;1.38;;;17.40;71.00;;;;;;10370110;28;20109;-52
2022/11/28 12:25:40;;;;;;;5.00;1.83;;;17.40;70.80;;;;;;10369327;28;20068;-53
2022/11/28 12:31:33;;;;;;;7.43;1.25;;;17.30;71.50;;;;;;10396259;28;20026;-54
2022/11/28 12:37:10;;;;;;;8.07;1.65;;;17.30;71.20;;;;;;10412734;28;20100;-51
2022/11/28 12:42:24;;;;;;;3.47;1.30;;;17.20;70.90;;;;;;10395038;28;20042;-50
2022/11/28 12:47:45;;;;;;;10.63;1.88;;;17.20;70.80;;;;;;10395744;28;20032;-52
2022/11/28 12:53:45;;;;;;;8.13;1.45;;;17.20;70.90;;;;;;10418567;28;20030;-54
2022/11/28 12:58:57;;;;;;;4.93;1.30;;;17.10;71.20;;;;;;10412229;28;20152;-53
2022/11/28 13:04:18;;;;;;;8.68;1.55;;;17.10;70.90;;;;;;10401740;28;20028;-53
2022/11/28 13:09:43;;;;;;;4.85;1.38;;;17.10;70.90;;;;;;10370725;28;20157;-52
2022/11/28 13:14:59;;;;;;;7.60;1.70;;;17.10;70.80;;;;;;10362918;28;20042;-52
2022/11/28 13:20:41;;;;;;;13.48;2.85;;;17.00;71.20;;;;;;10356392;28;20346;-53
2022/11/28 13:26:23;;;;;;;6.95;2.40;;;16.90;71.50;;;;;;10348721;28;20791;-53
2022/11/28 13:31:35;;;;;;;14.20;2.15;;;17.00;71.70;;;;;;10367743;28;20031;-53
2022/11/28 13:36:57;;;;;;;11.20;3.17;;;17.20;71.20;;;;;;10382141;28;20551;-53
2022/11/28 13:42:31;;;;;;;15.65;2.80;;;17.20;71.50;;;;;;10370725;28;20049;-52
2022/11/28 13:47:35;;;;;;;8.60;2.67;;;17.30;71.80;;;;;;10345237;28;20045;-54
2022/11/28 13:52:41;;;;;;;8.52;2.55;;;17.40;71.60;;;;;;10334486;28;20026;-54
2022/11/28 13:57:42;;;;;;;9.98;2.70;;;17.30;71.50;;;;;;10352879;28;20604;-54
2022/11/28 14:03:01;;;;;;;6.95;1.95;;;17.10;71.80;;;;;;10356068;28;20033;-55
2022/11/28 14:08:04;;;;;;;8.40;2.40;;;17.20;72.00;;;;;;10377562;28;20031;-55
2022/11/28 14:13:38;;;;;;;6.88;2.75;;;17.20;71.90;;;;;;10365748;28;20526;-55
2022/11/28 14:19:00;;;;;;;11.52;2.80;;;17.20;72.10;;;;;;10362575;28;20018;-55
2022/11/28 14:24:25;;;;;;;11.68;2.88;;;17.10;72.50;;;;;;10360482;28;20101;-55
2022/11/28 14:29:36;;;;;;;14.60;3.67;;;17.20;72.40;;;;;;10360839;28;20489;-56
2022/11/28 14:34:41;;;;;;;12.20;3.45;;;17.20;72.60;;;;;;10352229;28;20496;-55
2022/11/28 14:39:42;;;;;;;11.88;3.45;;;17.10;72.90;;;;;;10374972;28;20026;-54
2022/11/28 14:44:57;;;;;;;8.50;2.95;;;17.10;72.70;;;;;;10366327;28;20100;-53
2022/11/28 14:50:03;;;;;;;7.30;3.08;;;17.20;72.70;;;;;;10366018;28;20673;-53
2022/11/28 14:55:16;;;;;;;8.25;2.90;;;17.20;72.80;;;;;;10372573;28;20127;-54
2022/11/28 15:00:25;;;;;;;12.57;4.00;;;17.20;73.60;;;;;;10365241;28;20029;-55
2022/11/28 15:05:38;;;;;;;9.85;3.60;;;17.20;73.70;;;;;;10366058;28;20473;-56
2022/11/28 15:11:00;;;;;;;10.98;3.67;;;17.10;74.40;;;;;;10365642;28;20033;-54
2022/11/28 15:16:05;;;;;;;15.02;4.40;;;17.10;74.90;;;;;;10357295;28;20046;-57
2022/11/28 15:21:12;;;;;;;13.30;3.70;;;17.20;77.40;;;;;;10368474;28;20132;-57
2022/11/28 15:26:29;;;;;;;18.60;4.07;;;17.10;75.40;;;;;;10404979;28;20025;-54
2022/11/28 15:31:31;;;;;;;21.15;5.00;;;17.10;75.40;;;;;;10405160;28;20025;-53
2022/11/28 15:36:32;;;;;;;14.45;3.55;;;17.00;75.40;;;;;;10368495;28;20071;-53
2022/11/28 15:41:32;;;;;;;7.38;3.35;;;17.10;75.50;;;;;;10354930;28;20014;-57
2022/11/28 15:46:33;;;;;;;13.98;3.72;;;17.20;75.60;;;;;;10375351;28;20021;-54
2022/11/28 15:51:34;;;;;;;12.80;3.40;;;17.10;75.70;;;;;;10401824;28;20050;-56
2022/11/28 15:56:36;;;;;;;15.07;4.05;;;17.20;76.60;;;;;;10391677;28;20021;-55
2022/11/28 16:01:37;;;;;;;12.00;4.13;;;17.10;77.00;;;;;;10389750;28;20062;-56
2022/11/28 16:06:41;;;;;;;19.05;4.90;;;17.30;76.70;;;;;;10362470;28;20076;-55
2022/11/28 16:11:50;;;;;;;10.98;4.68;;;17.30;76.90;;;;;;10364741;28;20018;-55
2022/11/28 16:16:51;;;;;;;10.15;4.68;;;17.20;76.70;;;;;;10397222;28;20087;-55
2022/11/28 16:22:05;;;;;;;24.58;6.80;;;16.90;77.00;;;;;;10365684;28;20562;-54
2022/11/28 16:27:05;;;;;;;18.85;5.93;;;16.80;77.10;;;;;;10355535;28;20014;-56
2022/11/28 16:32:17;;;;;;;20.63;6.45;;;16.70;77.20;;;;;;10351604;28;20026;-55
2022/11/28 16:37:26;;;;;;;18.05;6.57;;;16.70;76.20;;;;;;10346486;28;20056;-56
2022/11/28 16:42:27;;;;;;;16.15;8.52;;;16.80;75.20;;;;;;10361207;28;20030;-57
2022/11/28 16:47:31;;;;;;;15.00;8.18;;;16.80;74.70;;;;;;10360766;28;20076;-55
2022/11/28 16:52:45;;;;;;;16.08;8.82;;;16.80;74.50;;;;;;10377706;28;20746;-55
2022/11/28 16:58:06;;;;;;;17.25;9.63;;;17.00;74.70;;;;;;10344583;28;20053;-55
2022/11/28 17:03:40;;;;;;;19.42;10.20;;;17.20;76.80;;;;;;10352517;28;20018;-56
2022/11/28 17:08:40;;;;;;;20.10;7.82;;;17.20;74.40;;;;;;10355921;28;20503;-55
2022/11/28 17:13:42;;;;;;;18.50;9.38;;;17.40;75.50;;;;;;10359432;28;20061;-56
2022/11/28 17:18:44;;;;;;;15.85;7.88;;;17.40;74.80;;;;;;10323119;28;20505;-55
2022/11/28 17:23:45;;;;;;;21.73;10.32;;;17.30;74.70;;;;;;10380472;28;20083;-54
2022/11/28 17:28:45;;;;;;;13.05;8.32;;;17.20;74.60;;;;;;10349083;28;20514;-53
2022/11/28 17:33:46;;;;;;;17.08;8.98;;;17.20;74.80;;;;;;10348703;28;20072;-54
2022/11/28 17:38:47;;;;;;;17.83;9.13;;;17.20;74.60;;;;;;10371031;28;20596;-54
2022/11/28 17:43:48;;;;;;;24.67;8.68;;;17.20;74.70;;;;;;10365399;28;20034;-54
2022/11/28 17:48:48;;;;;;;18.73;8.45;;;17.10;74.80;;;;;;10372590;28;20057;-53
2022/11/28 17:53:49;;;;;;;17.77;7.65;;;17.20;74.70;;;;;;10368698;28;20093;-53
2022/11/28 17:58:50;;;;;;;18.23;8.82;;;17.20;74.50;;;;;;10408721;28;20378;-53
2022/11/28 18:03:51;;;;;;;12.85;7.75;;;17.10;74.50;;;;;;10408626;28;20061;-53
2022/11/28 18:08:52;;;;;;;12.32;8.10;;;17.10;74.30;;;;;;10358074;28;20026;-54
2022/11/28 18:13:53;;;;;;;15.63;8.55;;;17.10;74.10;;;;;;10367021;28;20029;-57
2022/11/28 18:18:54;;;;;;;11.95;7.55;;;17.10;74.00;;;;;;10367474;28;20053;-54
2022/11/28 18:23:55;;;;;;;15.30;9.48;;;17.00;74.00;;;;;;10397649;28;20064;-52
2022/11/28 18:28:55;;;;;;;15.05;7.68;;;17.00;74.00;;;;;;10359300;28;20034;-55
2022/11/28 18:34:00;;;;;;;15.30;7.40;;;17.00;74.30;;;;;;10355135;28;20109;-51
2022/11/28 18:39:05;;;;;;;15.27;7.88;;;16.90;74.30;;;;;;10379306;28;20062;-52
2022/11/28 18:44:06;;;;;;;12.70;7.57;;;16.90;74.20;;;;;;10355614;28;20025;-53
2022/11/28 18:49:10;;;;;;;15.85;8.05;;;16.80;74.20;;;;;;10367433;28;20022;-51
2022/11/28 18:54:11;;;;;;;11.93;7.55;;;16.80;75.10;;;;;;10380124;28;20040;-51
2022/11/28 18:59:12;;;;;;;15.48;6.85;;;16.80;74.50;;;;;;10407461;28;20029;-51
2022/11/28 19:04:14;;;;;;;11.10;7.47;;;16.70;74.60;;;;;;10402286;28;20519;-53
2022/11/28 19:09:16;;;;;;;14.23;7.80;;;16.60;74.70;;;;;;10362681;28;20056;-54
2022/11/28 19:14:18;;;;;;;13.98;7.45;;;16.60;74.60;;;;;;10387047;28;20362;-53
2022/11/28 19:19:19;;;;;;;13.27;7.80;;;16.60;74.50;;;;;;10377770;28;20515;-48
2022/11/28 19:24:19;;;;;;;16.73;9.20;;;16.50;74.30;;;;;;10393442;28;20117;-54
2022/11/28 19:29:21;;;;;;;10.60;7.43;;;16.60;74.70;;;;;;10367404;28;20100;-54
2022/11/28 19:34:21;;;;;;;10.73;7.55;;;16.50;74.50;;;;;;10388208;28;20041;-53
2022/11/28 19:39:24;;;;;;;10.18;7.10;;;16.50;74.60;;;;;;10381315;28;20014;-49
2022/11/28 19:44:27;;;;;;;12.43;7.68;;;16.50;74.50;;;;;;10364910;28;20495;-50
2022/11/28 19:49:28;;;;;;;15.70;8.63;;;16.50;74.50;;;;;;10366992;28;20029;-52
2022/11/28 19:54:29;;;;;;;13.00;6.93;;;16.50;74.70;;;;;;10388114;28;20507;-53
2022/11/28 19:59:30;;;;;;;12.18;6.68;;;16.50;75.20;;;;;;10395236;28;20013;-53
2022/11/28 20:04:30;;;;;;;11.50;7.22;;;16.50;75.20;;;;;;10384562;28;20030;-54
2022/11/28 20:09:31;;;;;;;11.52;7.00;;;16.50;75.10;;;;;;10376115;28;20439;-53
2022/11/28 20:14:32;;;;;;;15.68;7.68;;;16.60;75.10;;;;;;10389447;28;20072;-52
2022/11/28 20:19:32;;;;;;;13.20;7.40;;;16.50;75.20;;;;;;10406491;28;20034;-51
2022/11/28 20:24:33;;;;;;;10.13;7.05;;;16.40;75.20;;;;;;10382150;28;20065;-55
2022/11/28 20:29:34;;;;;;;10.73;7.32;;;16.40;75.10;;;;;;10382804;28;20041;-53
2022/11/28 20:34:34;;;;;;;11.07;7.10;;;16.30;74.70;;;;;;10385374;28;20685;-53
2022/11/28 20:39:35;;;;;;;10.90;7.50;;;16.20;74.80;;;;;;10393833;28;20105;-55
2022/11/28 20:44:36;;;;;;;10.80;6.88;;;16.20;75.20;;;;;;10406965;28;20022;-55
2022/11/28 20:49:37;;;;;;;12.60;7.97;;;16.20;75.40;;;;;;10371515;28;20064;-55
2022/11/28 20:54:37;;;;;;;11.18;6.90;;;16.10;75.20;;;;;;10362819;28;20080;-54
2022/11/28 20:59:40;;;;;;;9.60;7.80;;;16.10;75.20;;;;;;10386189;28;20080;-52
2022/11/28 21:04:40;;;;;;;12.43;7.05;;;16.10;75.20;;;;;;10390790;28;20025;-53
2022/11/28 21:09:41;;;;;;;11.95;7.55;;;16.10;75.10;;;;;;10390330;28;20554;-54
2022/11/28 21:14:41;;;;;;;11.35;7.80;;;16.00;75.00;;;;;;10386851;28;20169;-54
2022/11/28 21:19:42;;;;;;;11.75;7.43;;;16.00;74.90;;;;;;10387920;28;20110;-55
2022/11/28 21:24:47;;;;;;;11.05;8.45;;;16.00;74.80;;;;;;10382587;28;20100;-53
2022/11/28 21:29:50;;;;;;;11.45;8.05;;;16.00;74.80;;;;;;10388277;28;20025;-53
2022/11/28 21:34:52;;;;;;;13.25;7.88;;;15.90;74.80;;;;;;10385557;28;20041;-54
2022/11/28 21:39:52;;;;;;;14.05;7.85;;;15.90;74.60;;;;;;10393061;28;20022;-55
2022/11/28 21:44:53;;;;;;;9.95;8.02;;;15.90;74.70;;;;;;10365914;28;20061;-54
2022/11/28 21:49:54;;;;;;;10.07;7.68;;;15.90;74.80;;;;;;10376611;28;20113;-55
2022/11/28 21:54:54;;;;;;;10.48;7.43;;;15.90;74.80;;;;;;10374796;28;20071;-55
2022/11/28 21:59:55;;;;;;;11.82;7.60;;;15.90;74.80;;;;;;10401721;28;20065;-53
2022/11/28 22:04:57;;;;;;;12.48;8.25;;;15.80;74.70;;;;;;10380162;28;20121;-54
2022/11/28 22:09:58;;;;;;;12.15;6.95;;;15.80;74.70;;;;;;10409601;28;20041;-54
2022/11/28 22:14:59;;;;;;;11.43;7.25;;;15.80;74.60;;;;;;10371986;28;20057;-54
2022/11/28 22:19:59;;;;;;;12.50;8.07;;;15.80;74.60;;;;;;10398655;28;20041;-54
2022/11/28 22:25:00;;;;;;;12.38;7.57;;;15.80;74.60;;;;;;10393925;28;20048;-53
2022/11/28 22:30:01;;;;;;;12.05;7.88;;;15.80;74.70;;;;;;10407920;28;20108;-59
2022/11/28 22:35:01;;;;;;;14.23;8.75;;;15.80;74.60;;;;;;10397209;28;20689;-54
2022/11/28 22:40:03;;;;;;;10.57;7.40;;;15.80;74.60;;;;;;10364280;28;20669;-53
2022/11/28 22:45:04;;;;;;;12.18;7.90;;;15.80;74.50;;;;;;10396308;28;20453;-54
2022/11/28 22:50:06;;;;;;;10.77;7.10;;;15.80;74.50;;;;;;10380556;28;20057;-55
2022/11/28 22:55:07;;;;;;;13.55;7.55;;;15.80;74.60;;;;;;10376366;28;20025;-55
2022/11/28 23:00:09;;;;;;;13.13;8.73;;;15.70;74.40;;;;;;10402908;28;20464;-54
2022/11/28 23:05:10;;;;;;;10.32;7.00;;;15.70;74.40;;;;;;10395028;28;20673;-54
2022/11/28 23:10:11;;;;;;;12.88;8.80;;;15.70;74.40;;;;;;10366879;28;20092;-56
2022/11/28 23:15:11;;;;;;;11.93;8.20;;;15.70;74.30;;;;;;10378722;28;20037;-55
2022/11/28 23:20:13;;;;;;;12.43;8.45;;;15.70;74.30;;;;;;10397497;28;21315;-53
2022/11/28 23:25:14;;;;;;;12.27;8.10;;;15.70;74.30;;;;;;10369013;28;20065;-54
2022/11/28 23:30:15;;;;;;;12.52;7.10;;;15.70;74.30;;;;;;10366061;28;20018;-54
2022/11/28 23:35:15;;;;;;;9.73;7.20;;;15.70;74.30;;;;;;10384594;28;20041;-55
2022/11/28 23:40:16;;;;;;;11.48;8.40;;;15.70;74.20;;;;;;10365488;28;20520;-55
2022/11/28 23:45:17;;;;;;;12.57;8.68;;;15.70;74.20;;;;;;10378302;28;20103;-55
2022/11/28 23:50:18;;;;;;;10.75;7.45;;;15.70;74.10;;;;;;10399339;28;20050;-52
2022/11/28 23:55:18;;;;;;;13.82;8.85;;;15.70;74.00;;;;;;10377712;28;20044;-54
